Circle City, Arizona
Current Conditions -  °F | °C
As of 8:58 PM on Saturday 20 Dec 2014 (Local Time) from KLUF Reporting Station
Few Clouds Few Clouds  
Wind Chill: 52°   Ceiling: Unl
Heat Index: 52°   Visibility: 10mi
Dew Point: 44°   Wind: 6mph
Humidity: 73%   Direction: 10°N
Pressure: 30.1"   Gusts: NA
Location:  33.8631°N, 112.556°W
Report Text: KLUF 210358Z AUTO 01005KT 10SM FEW230 11/07 A3010 RMK AO2 SLP193 T01130067 $
Loading
Personal Weather Stations






























Interactive Weather Map New forecast layout! Learn more

10-Day Weather Forecast

Advertisements
Track Severe Weather on mobile